createdAt,value
2023-04-27T00:00:09.378Z,9.55
2023-04-27T00:04:14.439Z,8.52
2023-04-27T00:08:17.407Z,10.75
2023-04-27T00:12:21.515Z,9.18
2023-04-27T00:16:24.383Z,11.65
2023-04-27T00:20:27.486Z,10.43
2023-04-27T00:24:33.529Z,11.73
2023-04-27T00:28:38.013Z,12.73
2023-04-27T00:32:42.911Z,12.15
2023-04-27T00:36:47.895Z,11.75
2023-04-27T00:40:50.688Z,13.75
2023-04-27T00:44:55.176Z,11.73
2023-04-27T00:48:58.537Z,13.15
2023-04-27T00:53:02.556Z,9.38
2023-04-27T00:57:07.050Z,12.20
2023-04-27T01:01:12.937Z,10.05
2023-04-27T01:05:15.910Z,10.95
2023-04-27T01:09:20.063Z,8.82
2023-04-27T01:13:25.893Z,10.85
2023-04-27T01:17:30.189Z,10.30
2023-04-27T01:21:33.211Z,10.02
2023-04-27T01:25:37.371Z,8.55
2023-04-27T01:29:40.280Z,9.90
2023-04-27T01:33:46.251Z,10.57
2023-04-27T01:37:50.437Z,9.65
2023-04-27T01:41:56.651Z,7.55
2023-04-27T01:46:07.159Z,8.65
2023-04-27T01:50:10.670Z,10.60
2023-04-27T01:54:15.644Z,11.25
2023-04-27T01:58:20.936Z,11.68
2023-04-27T02:02:24.960Z,10.10
2023-04-27T02:06:28.186Z,9.75
2023-04-27T02:10:30.932Z,8.95
2023-04-27T02:14:35.039Z,8.57
2023-04-27T02:18:38.441Z,9.73
2023-04-27T02:22:43.691Z,11.57
2023-04-27T02:26:56.290Z,11.50
2023-04-27T02:31:01.380Z,11.35
2023-04-27T02:35:05.056Z,11.00
2023-04-27T02:39:07.769Z,10.48
2023-04-27T02:43:12.780Z,8.05
2023-04-27T02:47:16.835Z,10.18
2023-04-27T02:51:19.577Z,9.43
2023-04-27T02:55:22.372Z,10.23
2023-04-27T02:59:25.430Z,9.27
2023-04-27T03:03:29.763Z,10.52
2023-04-27T03:07:32.592Z,8.98
2023-04-27T03:11:37.337Z,10.27
2023-04-27T03:15:40.424Z,11.80
2023-04-27T03:19:44.457Z,8.75
2023-04-27T03:23:50.437Z,9.95
2023-04-27T03:27:53.635Z,9.75
2023-04-27T03:31:58.997Z,8.85
2023-04-27T03:36:04.351Z,9.45
2023-04-27T03:40:08.507Z,7.63
2023-04-27T03:44:11.332Z,9.98
2023-04-27T03:48:14.571Z,9.98
2023-04-27T03:52:19.395Z,11.05
2023-04-27T03:56:23.054Z,10.27
2023-04-27T04:00:27.228Z,9.63
2023-04-27T04:04:30.390Z,11.27
2023-04-27T04:08:34.710Z,12.25
2023-04-27T04:12:37.741Z,9.90
2023-04-27T04:16:40.503Z,11.10
2023-04-27T04:20:43.310Z,12.07
2023-04-27T04:24:47.378Z,11.63
2023-04-27T04:28:50.226Z,12.13
2023-04-27T04:32:53.492Z,12.02
2023-04-27T04:36:57.594Z,14.32
2023-04-27T04:41:02.449Z,14.77
2023-04-27T04:45:09.300Z,15.18
2023-04-27T04:49:12.525Z,14.70
2023-04-27T04:53:15.870Z,13.10
2023-04-27T04:57:20.551Z,13.25
2023-04-27T05:01:23.519Z,24.38
2023-04-27T05:05:26.413Z,30.05
2023-04-27T05:09:29.518Z,15.57
2023-04-27T05:13:33.610Z,15.07
2023-04-27T05:17:36.482Z,14.95
2023-04-27T05:21:39.486Z,12.75
2023-04-27T05:25:42.759Z,12.50
2023-04-27T05:29:46.883Z,13.38
2023-04-27T05:33:49.624Z,14.60
2023-04-27T05:37:52.545Z,12.63
2023-04-27T05:41:55.297Z,15.40
2023-04-27T05:46:00.461Z,14.38
2023-04-27T05:50:03.675Z,13.20
2023-04-27T05:54:06.505Z,14.52
2023-04-27T05:58:09.483Z,14.20
2023-04-27T06:02:13.638Z,12.73
2023-04-27T06:06:16.512Z,13.75
2023-04-27T06:10:19.387Z,14.98
2023-04-27T06:14:22.151Z,10.45
2023-04-27T06:18:26.481Z,13.90
2023-04-27T06:22:29.141Z,11.88
2023-04-27T06:26:31.847Z,12.07
2023-04-27T06:30:34.600Z,12.73
2023-04-27T06:34:38.653Z,12.80
2023-04-27T06:38:41.388Z,11.15
2023-04-27T06:42:44.142Z,7.18
2023-04-27T06:46:46.890Z,6.15
2023-04-27T06:50:50.934Z,9.77
2023-04-27T06:54:53.634Z,10.52
2023-04-27T06:58:56.411Z,7.60
2023-04-27T07:02:59.248Z,5.03
2023-04-27T07:07:03.383Z,6.65
2023-04-27T07:11:06.400Z,4.28
2023-04-27T07:15:10.552Z,5.82
2023-04-27T07:19:13.507Z,5.70
2023-04-27T07:23:17.824Z,3.80
2023-04-27T07:27:20.556Z,5.05
2023-04-27T07:31:23.422Z,7.43
2023-04-27T07:35:26.352Z,3.70
2023-04-27T07:39:30.829Z,8.20
2023-04-27T07:43:33.555Z,4.60
2023-04-27T07:47:36.355Z,5.40
2023-04-27T07:51:39.654Z,6.10
2023-04-27T07:55:44.715Z,5.97
2023-04-27T07:59:47.454Z,5.30
2023-04-27T08:03:50.407Z,4.15
2023-04-27T08:07:54.527Z,3.97
2023-04-27T08:11:59.973Z,5.22
2023-04-27T08:16:02.975Z,3.08
2023-04-27T08:20:07.901Z,4.07
2023-04-27T08:24:11.552Z,3.15
2023-04-27T08:28:17.066Z,3.22
2023-04-27T08:32:20.640Z,3.25
2023-04-27T08:36:25.329Z,3.00
2023-04-27T08:40:28.509Z,2.58
2023-04-27T08:44:34.026Z,3.67
2023-04-27T08:48:37.012Z,3.05
2023-04-27T08:52:39.947Z,2.25
2023-04-27T08:56:42.817Z,2.33
2023-04-27T09:00:47.922Z,2.63
2023-04-27T09:04:53.495Z,2.67
2023-04-27T09:08:56.555Z,3.03
2023-04-27T09:13:01.130Z,3.45
2023-04-27T09:17:05.773Z,4.18
2023-04-27T09:21:08.857Z,4.80
2023-04-27T09:25:33.902Z,4.45
2023-04-27T09:29:51.233Z,3.70
2023-04-27T09:34:05.187Z,3.95
2023-04-27T09:38:25.328Z,3.13
2023-04-27T09:42:35.071Z,2.92
2023-04-27T09:46:40.529Z,2.22
2023-04-27T09:50:56.225Z,2.53
2023-04-27T09:55:02.307Z,5.80
2023-04-27T09:59:54.175Z,3.35
2023-04-27T10:04:10.184Z,4.43
2023-04-27T10:08:19.252Z,3.28
2023-04-27T10:12:26.867Z,4.93
2023-04-27T10:16:45.099Z,5.63
2023-04-27T10:20:51.852Z,4.43
2023-04-27T10:24:58.058Z,3.88
2023-04-27T10:29:07.191Z,3.35
2023-04-27T10:33:16.760Z,4.78
2023-04-27T10:37:26.044Z,5.55
2023-04-27T10:41:59.017Z,3.40
2023-04-27T10:46:20.982Z,4.22
2023-04-27T10:50:45.137Z,3.88
2023-04-27T10:54:56.304Z,4.20
2023-04-27T11:03:50.606Z,3.60
2023-04-27T11:08:12.814Z,4.05
2023-04-27T11:12:19.103Z,4.18
2023-04-27T11:16:42.969Z,4.32
2023-04-27T11:20:49.681Z,4.50
2023-04-27T11:24:59.126Z,5.97
2023-04-27T11:29:09.579Z,4.88
2023-04-27T11:33:25.797Z,3.92
2023-04-27T11:37:32.077Z,14.82
2023-04-27T11:41:36.258Z,3.92
2023-04-27T11:45:43.367Z,4.60
2023-04-27T11:49:49.698Z,4.25
2023-04-27T11:53:52.671Z,3.88
2023-04-27T11:57:58.997Z,3.50
2023-04-27T12:02:01.789Z,4.78
2023-04-27T12:06:27.454Z,4.18
2023-04-27T12:10:29.433Z,5.68
2023-04-27T12:14:32.197Z,4.80
2023-04-27T12:18:35.119Z,5.28
2023-04-27T12:22:39.312Z,7.47
2023-04-27T12:26:42.080Z,4.45
2023-04-27T12:30:44.854Z,5.65
2023-04-27T12:34:51.833Z,3.92
2023-04-27T12:38:59.900Z,5.43
2023-04-27T12:43:02.661Z,6.57
2023-04-27T12:47:05.572Z,4.63
2023-04-27T12:51:08.844Z,5.13
2023-04-27T12:55:24.813Z,6.93
2023-04-27T12:59:36.632Z,3.88
2023-04-27T13:04:44.760Z,4.25
2023-04-27T13:08:45.727Z,5.78
2023-04-27T13:12:50.403Z,4.13
2023-04-27T13:16:53.295Z,4.85
2023-04-27T13:20:56.308Z,4.00
2023-04-27T13:24:59.237Z,4.90
2023-04-27T13:29:04.673Z,6.03
2023-04-27T13:33:18.310Z,4.60
2023-04-27T13:37:25.489Z,3.90
2023-04-27T13:41:37.120Z,4.80
2023-04-27T13:45:42.564Z,5.88
2023-04-27T13:49:46.563Z,6.97
2023-04-27T13:53:58.869Z,5.47
2023-04-27T13:58:04.800Z,4.38
2023-04-27T14:02:26.007Z,4.68
2023-04-27T14:06:29.501Z,4.35
2023-04-27T14:10:32.829Z,6.88
2023-04-27T14:14:36.225Z,20.70
2023-04-27T14:18:43.315Z,3.83
2023-04-27T14:22:52.166Z,5.32
2023-04-27T14:26:58.197Z,6.25
2023-04-27T14:31:05.324Z,6.03
2023-04-27T14:35:10.019Z,6.63
2023-04-27T14:39:13.514Z,4.20
2023-04-27T14:43:21.755Z,6.53
2023-04-27T14:47:24.903Z,5.10
2023-04-27T14:51:29.597Z,5.38
2023-04-27T14:55:34.909Z,3.75
2023-04-27T14:59:37.760Z,4.60
2023-04-27T15:03:40.572Z,4.60
2023-04-27T15:07:45.828Z,3.70
2023-04-27T15:11:48.690Z,4.03
2023-04-27T15:15:57.551Z,4.32
2023-04-27T15:20:00.959Z,6.15
2023-04-27T15:24:17.175Z,4.15
2023-04-27T15:28:20.205Z,3.97
2023-04-27T15:32:25.995Z,3.95
2023-04-27T15:36:29.114Z,5.07
2023-04-27T15:40:34.019Z,5.63
2023-04-27T15:44:36.750Z,4.80
2023-04-27T15:48:39.700Z,4.10
2023-04-27T15:52:42.518Z,5.35
2023-04-27T15:56:46.975Z,4.38
2023-04-27T16:00:49.912Z,4.75
2023-04-27T16:04:55.880Z,3.97
2023-04-27T16:08:58.641Z,3.95
2023-04-27T16:13:03.245Z,3.88
2023-04-27T16:17:06.667Z,4.18
2023-04-27T16:21:09.363Z,3.88
2023-04-27T16:25:12.190Z,4.10
2023-04-27T16:29:16.660Z,3.72
2023-04-27T16:33:21.222Z,4.28
2023-04-27T16:37:24.132Z,4.07
2023-04-27T16:41:26.930Z,5.15
2023-04-27T16:45:31.144Z,4.05
2023-04-27T16:49:34.187Z,4.68
2023-04-27T16:53:38.014Z,4.35
2023-04-27T16:57:41.226Z,3.65
2023-04-27T17:01:45.487Z,4.63
2023-04-27T17:10:21.324Z,4.18
2023-04-27T17:14:24.413Z,3.45
2023-04-27T17:18:28.567Z,3.15
2023-04-27T17:22:32.947Z,5.15
2023-04-27T17:26:35.979Z,3.33
2023-04-27T17:30:39.111Z,7.07
2023-04-27T17:34:43.691Z,4.88
2023-04-27T17:38:46.752Z,6.97
2023-04-27T17:42:50.232Z,5.93
2023-04-27T17:46:53.503Z,3.90
2023-04-27T17:50:58.091Z,4.65
2023-04-27T17:55:00.920Z,4.38
2023-04-27T17:59:04.320Z,3.15
2023-04-27T18:03:08.318Z,4.78
2023-04-27T18:07:12.663Z,3.97
2023-04-27T18:11:15.885Z,4.65
2023-04-27T18:15:18.843Z,5.63
2023-04-27T18:19:21.660Z,7.07
2023-04-27T18:23:25.890Z,4.20
2023-04-27T18:27:28.739Z,4.07
2023-04-27T18:31:31.674Z,6.28
2023-04-27T18:35:34.834Z,3.78
2023-04-27T18:39:39.035Z,5.13
2023-04-27T18:43:41.936Z,5.55
2023-04-27T18:47:44.875Z,4.35
2023-04-27T18:51:47.724Z,7.28
2023-04-27T18:55:51.971Z,6.03
2023-04-27T18:59:54.704Z,5.63
2023-04-27T19:03:57.895Z,4.13
2023-04-27T19:08:01.545Z,4.55
2023-04-27T19:12:06.145Z,4.55
2023-04-27T19:16:09.565Z,4.85
2023-04-27T19:20:12.777Z,4.45
2023-04-27T19:24:15.709Z,5.65
2023-04-27T19:28:20.566Z,7.45
2023-04-27T19:32:26.793Z,5.80
2023-04-27T19:36:31.834Z,4.50
2023-04-27T19:40:34.705Z,6.30
2023-04-27T19:44:38.883Z,4.43
2023-04-27T19:48:42.489Z,4.82
2023-04-27T19:52:45.592Z,4.40
2023-04-27T19:56:48.422Z,4.63
2023-04-27T20:00:52.641Z,8.07
2023-04-27T20:04:56.111Z,8.35
2023-04-27T20:08:59.390Z,5.57
2023-04-27T20:13:02.360Z,8.85
2023-04-27T20:17:06.843Z,5.32
2023-04-27T20:21:09.639Z,4.15
2023-04-27T20:25:14.638Z,5.80
2023-04-27T20:29:17.712Z,4.82
2023-04-27T20:33:22.043Z,5.38
2023-04-27T20:37:24.863Z,6.15
2023-04-27T20:41:27.685Z,5.50
2023-04-27T20:45:31.048Z,7.47
2023-04-27T20:49:35.861Z,6.25
2023-04-27T20:53:40.015Z,6.50
2023-04-27T20:57:42.869Z,5.28
2023-04-27T21:01:45.907Z,3.10
2023-04-27T21:05:50.104Z,3.72
2023-04-27T21:09:52.841Z,3.42
2023-04-27T21:13:55.602Z,4.35
2023-04-27T21:17:58.419Z,3.50
2023-04-27T21:22:02.549Z,4.38
2023-04-27T21:26:06.034Z,3.33
2023-04-27T21:30:10.311Z,4.30
2023-04-27T21:34:14.966Z,5.10
2023-04-27T21:38:19.588Z,4.35
2023-04-27T21:42:22.547Z,8.50
2023-04-27T21:46:28.350Z,5.93
2023-04-27T21:50:35.887Z,6.95
2023-04-27T21:54:42.597Z,3.30
2023-04-27T21:58:45.354Z,7.57
2023-04-27T22:02:48.442Z,4.35
2023-04-27T22:06:52.473Z,4.50
2023-04-27T22:10:56.972Z,5.72
2023-04-27T22:14:59.726Z,5.38
2023-04-27T22:19:02.983Z,4.78
2023-04-27T22:23:05.707Z,6.50
2023-04-27T22:27:09.759Z,7.57
2023-04-27T22:31:12.531Z,4.20
2023-04-27T22:35:25.317Z,4.47
2023-04-27T22:39:31.166Z,4.25
2023-04-27T22:43:37.813Z,4.43
2023-04-27T22:47:41.305Z,4.47
2023-04-27T22:51:44.508Z,6.63
2023-04-27T22:55:47.234Z,6.53
2023-04-27T22:59:51.501Z,7.55
2023-04-27T23:03:54.287Z,5.68
2023-04-27T23:07:57.352Z,5.72
2023-04-27T23:12:00.992Z,6.82
2023-04-27T23:16:06.666Z,8.15
2023-04-27T23:20:20.459Z,5.72
2023-04-27T23:24:27.223Z,6.07
2023-04-27T23:28:29.976Z,7.05
2023-04-27T23:32:35.779Z,7.38
2023-04-27T23:36:38.553Z,6.55
2023-04-27T23:40:41.313Z,5.95
2023-04-27T23:44:44.118Z,9.43
2023-04-27T23:48:48.210Z,7.93
2023-04-27T23:52:50.933Z,7.28
2023-04-27T23:56:53.759Z,12.35
